sensor_id;sensor_type;location;lat;lon;timestamp;P1;durP1;ratioP1;P2;durP2;ratioP2
33254;SDS011;19623;52.482;9.762;2022-11-18T00:01:08;21.23;;;18.25;;
33254;SDS011;19623;52.482;9.762;2022-11-18T00:03:35;20.70;;;18.63;;
33254;SDS011;19623;52.482;9.762;2022-11-18T00:06:02;16.60;;;14.38;;
33254;SDS011;19623;52.482;9.762;2022-11-18T00:08:27;25.08;;;22.48;;
33254;SDS011;19623;52.482;9.762;2022-11-18T00:10:53;29.17;;;26.23;;
33254;SDS011;19623;52.482;9.762;2022-11-18T00:13:19;21.23;;;18.40;;
33254;SDS011;19623;52.482;9.762;2022-11-18T00:16:05;18.55;;;16.35;;
33254;SDS011;19623;52.482;9.762;2022-11-18T00:18:33;21.95;;;18.70;;
33254;SDS011;19623;52.482;9.762;2022-11-18T00:21:05;28.50;;;25.73;;
33254;SDS011;19623;52.482;9.762;2022-11-18T00:23:35;34.05;;;30.88;;
33254;SDS011;19623;52.482;9.762;2022-11-18T00:26:02;33.22;;;30.05;;
33254;SDS011;19623;52.482;9.762;2022-11-18T00:28:46;21.02;;;18.80;;
33254;SDS011;19623;52.482;9.762;2022-11-18T00:31:12;33.22;;;29.65;;
33254;SDS011;19623;52.482;9.762;2022-11-18T00:33:38;24.23;;;21.90;;
33254;SDS011;19623;52.482;9.762;2022-11-18T00:36:05;22.20;;;20.00;;
33254;SDS011;19623;52.482;9.762;2022-11-18T00:38:33;32.08;;;29.13;;
33254;SDS011;19623;52.482;9.762;2022-11-18T00:40:59;23.90;;;20.80;;
33254;SDS011;19623;52.482;9.762;2022-11-18T00:43:26;28.45;;;25.80;;
33254;SDS011;19623;52.482;9.762;2022-11-18T00:45:52;18.23;;;16.38;;
33254;SDS011;19623;52.482;9.762;2022-11-18T00:48:17;17.33;;;13.68;;
33254;SDS011;19623;52.482;9.762;2022-11-18T00:50:46;16.38;;;13.00;;
33254;SDS011;19623;52.482;9.762;2022-11-18T00:53:16;16.58;;;13.95;;
33254;SDS011;19623;52.482;9.762;2022-11-18T00:55:42;15.93;;;13.45;;
33254;SDS011;19623;52.482;9.762;2022-11-18T00:58:08;16.65;;;12.45;;
33254;SDS011;19623;52.482;9.762;2022-11-18T01:00:34;14.55;;;13.10;;
33254;SDS011;19623;52.482;9.762;2022-11-18T01:03:00;20.00;;;15.35;;
33254;SDS011;19623;52.482;9.762;2022-11-18T01:05:26;20.40;;;17.85;;
33254;SDS011;19623;52.482;9.762;2022-11-18T01:07:52;20.00;;;15.90;;
33254;SDS011;19623;52.482;9.762;2022-11-18T01:10:17;17.77;;;14.48;;
33254;SDS011;19623;52.482;9.762;2022-11-18T01:12:43;17.67;;;13.93;;
33254;SDS011;19623;52.482;9.762;2022-11-18T01:15:27;21.60;;;16.60;;
33254;SDS011;19623;52.482;9.762;2022-11-18T01:17:53;16.42;;;14.57;;
33254;SDS011;19623;52.482;9.762;2022-11-18T01:20:18;18.60;;;12.75;;
33254;SDS011;19623;52.482;9.762;2022-11-18T01:22:44;16.00;;;13.07;;
33254;SDS011;19623;52.482;9.762;2022-11-18T01:25:10;17.08;;;15.25;;
33254;SDS011;19623;52.482;9.762;2022-11-18T01:27:35;15.90;;;14.20;;
33254;SDS011;19623;52.482;9.762;2022-11-18T01:30:01;15.80;;;13.27;;
33254;SDS011;19623;52.482;9.762;2022-11-18T01:32:27;16.67;;;13.05;;
33254;SDS011;19623;52.482;9.762;2022-11-18T01:34:53;14.68;;;10.00;;
33254;SDS011;19623;52.482;9.762;2022-11-18T01:37:18;13.85;;;10.18;;
33254;SDS011;19623;52.482;9.762;2022-11-18T01:39:44;12.90;;;9.63;;
33254;SDS011;19623;52.482;9.762;2022-11-18T01:42:12;13.45;;;9.85;;
33254;SDS011;19623;52.482;9.762;2022-11-18T01:50:38;9.57;;;6.90;;
33254;SDS011;19623;52.482;9.762;2022-11-18T01:53:10;11.10;;;8.52;;
33254;SDS011;19623;52.482;9.762;2022-11-18T01:55:42;13.70;;;8.30;;
33254;SDS011;19623;52.482;9.762;2022-11-18T01:58:11;10.00;;;7.22;;
33254;SDS011;19623;52.482;9.762;2022-11-18T02:00:44;11.10;;;7.55;;
33254;SDS011;19623;52.482;9.762;2022-11-18T02:03:10;12.25;;;7.82;;
33254;SDS011;19623;52.482;9.762;2022-11-18T02:05:36;13.68;;;8.63;;
33254;SDS011;19623;52.482;9.762;2022-11-18T02:08:04;15.82;;;9.05;;
33254;SDS011;19623;52.482;9.762;2022-11-18T02:10:31;12.85;;;9.23;;
33254;SDS011;19623;52.482;9.762;2022-11-18T02:12:57;12.65;;;8.10;;
33254;SDS011;19623;52.482;9.762;2022-11-18T02:15:34;13.95;;;9.32;;
33254;SDS011;19623;52.482;9.762;2022-11-18T02:21:45;17.40;;;10.18;;
33254;SDS011;19623;52.482;9.762;2022-11-18T02:24:14;18.73;;;9.02;;
33254;SDS011;19623;52.482;9.762;2022-11-18T02:26:58;16.65;;;11.48;;
33254;SDS011;19623;52.482;9.762;2022-11-18T02:29:43;17.95;;;12.00;;
33254;SDS011;19623;52.482;9.762;2022-11-18T02:32:17;15.82;;;11.32;;
33254;SDS011;19623;52.482;9.762;2022-11-18T02:40:18;19.50;;;10.80;;
33254;SDS011;19623;52.482;9.762;2022-11-18T02:43:03;18.35;;;11.43;;
33254;SDS011;19623;52.482;9.762;2022-11-18T02:45:33;17.48;;;11.20;;
33254;SDS011;19623;52.482;9.762;2022-11-18T02:48:02;21.85;;;10.88;;
33254;SDS011;19623;52.482;9.762;2022-11-18T02:53:00;19.58;;;13.80;;
33254;SDS011;19623;52.482;9.762;2022-11-18T02:55:30;19.27;;;11.98;;
33254;SDS011;19623;52.482;9.762;2022-11-18T02:57:58;22.10;;;13.65;;
33254;SDS011;19623;52.482;9.762;2022-11-18T03:00:25;23.92;;;13.55;;
33254;SDS011;19623;52.482;9.762;2022-11-18T03:02:51;18.98;;;12.25;;
33254;SDS011;19623;52.482;9.762;2022-11-18T03:05:29;25.13;;;13.85;;
33254;SDS011;19623;52.482;9.762;2022-11-18T03:08:11;19.75;;;11.95;;
33254;SDS011;19623;52.482;9.762;2022-11-18T03:10:42;24.38;;;13.40;;
33254;SDS011;19623;52.482;9.762;2022-11-18T03:13:19;19.70;;;11.82;;
33254;SDS011;19623;52.482;9.762;2022-11-18T03:15:53;17.25;;;12.20;;
33254;SDS011;19623;52.482;9.762;2022-11-18T03:18:27;19.33;;;12.70;;
33254;SDS011;19623;52.482;9.762;2022-11-18T03:21:02;16.97;;;10.90;;
33254;SDS011;19623;52.482;9.762;2022-11-18T03:26:06;18.98;;;11.80;;
33254;SDS011;19623;52.482;9.762;2022-11-18T03:28:42;17.58;;;12.90;;
33254;SDS011;19623;52.482;9.762;2022-11-18T03:31:28;17.75;;;12.40;;
33254;SDS011;19623;52.482;9.762;2022-11-18T03:34:05;18.40;;;12.30;;
33254;SDS011;19623;52.482;9.762;2022-11-18T03:36:40;19.00;;;11.43;;
33254;SDS011;19623;52.482;9.762;2022-11-18T03:39:09;15.27;;;10.13;;
33254;SDS011;19623;52.482;9.762;2022-11-18T03:41:45;18.08;;;13.77;;
33254;SDS011;19623;52.482;9.762;2022-11-18T03:44:26;15.07;;;11.27;;
33254;SDS011;19623;52.482;9.762;2022-11-18T03:47:01;17.27;;;14.05;;
33254;SDS011;19623;52.482;9.762;2022-11-18T03:49:34;17.67;;;12.95;;
33254;SDS011;19623;52.482;9.762;2022-11-18T03:52:21;18.83;;;13.23;;
33254;SDS011;19623;52.482;9.762;2022-11-18T03:54:54;18.17;;;13.38;;
33254;SDS011;19623;52.482;9.762;2022-11-18T03:57:45;16.70;;;12.90;;
33254;SDS011;19623;52.482;9.762;2022-11-18T04:00:17;15.70;;;12.23;;
33254;SDS011;19623;52.482;9.762;2022-11-18T04:02:44;14.82;;;10.48;;
33254;SDS011;19623;52.482;9.762;2022-11-18T04:05:12;18.73;;;12.98;;
33254;SDS011;19623;52.482;9.762;2022-11-18T04:10:19;20.77;;;15.07;;
33254;SDS011;19623;52.482;9.762;2022-11-18T04:15:29;17.88;;;13.65;;
33254;SDS011;19623;52.482;9.762;2022-11-18T04:17:55;19.08;;;13.15;;
33254;SDS011;19623;52.482;9.762;2022-11-18T04:20:21;19.17;;;14.55;;
33254;SDS011;19623;52.482;9.762;2022-11-18T04:22:47;32.10;;;25.95;;
33254;SDS011;19623;52.482;9.762;2022-11-18T04:25:13;18.90;;;13.20;;
33254;SDS011;19623;52.482;9.762;2022-11-18T04:27:39;29.15;;;20.48;;
33254;SDS011;19623;52.482;9.762;2022-11-18T04:30:05;22.00;;;16.90;;
33254;SDS011;19623;52.482;9.762;2022-11-18T04:32:32;22.13;;;15.45;;
33254;SDS011;19623;52.482;9.762;2022-11-18T04:34:57;20.92;;;16.35;;
33254;SDS011;19623;52.482;9.762;2022-11-18T04:37:23;27.63;;;21.25;;
33254;SDS011;19623;52.482;9.762;2022-11-18T04:39:49;25.73;;;18.90;;
33254;SDS011;19623;52.482;9.762;2022-11-18T04:42:14;33.67;;;29.08;;
33254;SDS011;19623;52.482;9.762;2022-11-18T04:44:40;29.88;;;23.45;;
33254;SDS011;19623;52.482;9.762;2022-11-18T04:47:06;22.05;;;16.88;;
33254;SDS011;19623;52.482;9.762;2022-11-18T04:49:32;28.27;;;24.20;;
33254;SDS011;19623;52.482;9.762;2022-11-18T04:51:59;27.92;;;24.30;;
33254;SDS011;19623;52.482;9.762;2022-11-18T04:54:25;48.20;;;43.15;;
33254;SDS011;19623;52.482;9.762;2022-11-18T04:56:52;37.88;;;34.13;;
33254;SDS011;19623;52.482;9.762;2022-11-18T04:59:22;32.92;;;29.33;;
33254;SDS011;19623;52.482;9.762;2022-11-18T05:01:50;30.40;;;23.98;;
33254;SDS011;19623;52.482;9.762;2022-11-18T05:04:18;33.10;;;29.63;;
33254;SDS011;19623;52.482;9.762;2022-11-18T05:06:45;33.95;;;29.27;;
33254;SDS011;19623;52.482;9.762;2022-11-18T05:09:11;39.53;;;34.33;;
33254;SDS011;19623;52.482;9.762;2022-11-18T05:11:37;40.33;;;35.65;;
33254;SDS011;19623;52.482;9.762;2022-11-18T05:14:41;41.15;;;36.55;;
33254;SDS011;19623;52.482;9.762;2022-11-18T05:17:07;43.05;;;33.78;;
33254;SDS011;19623;52.482;9.762;2022-11-18T05:19:35;42.58;;;35.67;;
33254;SDS011;19623;52.482;9.762;2022-11-18T05:22:02;44.50;;;34.70;;
33254;SDS011;19623;52.482;9.762;2022-11-18T05:24:28;40.80;;;31.90;;
33254;SDS011;19623;52.482;9.762;2022-11-18T05:26:54;45.47;;;35.03;;
33254;SDS011;19623;52.482;9.762;2022-11-18T05:29:19;39.55;;;31.83;;
33254;SDS011;19623;52.482;9.762;2022-11-18T05:31:46;45.47;;;35.33;;
33254;SDS011;19623;52.482;9.762;2022-11-18T05:34:12;39.85;;;31.33;;
33254;SDS011;19623;52.482;9.762;2022-11-18T05:36:38;42.63;;;31.58;;
33254;SDS011;19623;52.482;9.762;2022-11-18T05:39:04;51.40;;;38.88;;
33254;SDS011;19623;52.482;9.762;2022-11-18T05:41:30;48.05;;;34.50;;
33254;SDS011;19623;52.482;9.762;2022-11-18T05:44:14;40.13;;;29.17;;
33254;SDS011;19623;52.482;9.762;2022-11-18T05:46:40;35.60;;;26.25;;
33254;SDS011;19623;52.482;9.762;2022-11-18T05:49:06;38.25;;;24.75;;
33254;SDS011;19623;52.482;9.762;2022-11-18T05:51:32;34.20;;;20.73;;
33254;SDS011;19623;52.482;9.762;2022-11-18T05:53:58;35.65;;;21.25;;
33254;SDS011;19623;52.482;9.762;2022-11-18T05:56:39;41.20;;;23.42;;
33254;SDS011;19623;52.482;9.762;2022-11-18T05:59:08;38.13;;;24.23;;
33254;SDS011;19623;52.482;9.762;2022-11-18T06:01:44;40.83;;;28.38;;
33254;SDS011;19623;52.482;9.762;2022-11-18T06:04:30;38.75;;;26.48;;
33254;SDS011;19623;52.482;9.762;2022-11-18T06:07:05;39.58;;;28.15;;
33254;SDS011;19623;52.482;9.762;2022-11-18T06:09:37;44.90;;;27.70;;
33254;SDS011;19623;52.482;9.762;2022-11-18T06:12:07;48.65;;;32.90;;
33254;SDS011;19623;52.482;9.762;2022-11-18T06:14:39;35.47;;;23.73;;
33254;SDS011;19623;52.482;9.762;2022-11-18T06:17:10;41.25;;;22.67;;
33254;SDS011;19623;52.482;9.762;2022-11-18T06:19:40;58.78;;;39.80;;
33254;SDS011;19623;52.482;9.762;2022-11-18T06:22:06;48.47;;;36.00;;
33254;SDS011;19623;52.482;9.762;2022-11-18T06:24:33;47.38;;;35.65;;
33254;SDS011;19623;52.482;9.762;2022-11-18T06:26:59;54.00;;;37.58;;
33254;SDS011;19623;52.482;9.762;2022-11-18T06:29:25;50.35;;;38.28;;
33254;SDS011;19623;52.482;9.762;2022-11-18T06:31:52;52.22;;;39.40;;
33254;SDS011;19623;52.482;9.762;2022-11-18T06:34:17;52.08;;;37.00;;
33254;SDS011;19623;52.482;9.762;2022-11-18T06:36:43;59.38;;;44.75;;
33254;SDS011;19623;52.482;9.762;2022-11-18T06:39:08;51.28;;;37.58;;
33254;SDS011;19623;52.482;9.762;2022-11-18T06:41:34;49.90;;;38.50;;
33254;SDS011;19623;52.482;9.762;2022-11-18T06:44:00;57.35;;;39.38;;
33254;SDS011;19623;52.482;9.762;2022-11-18T06:46:25;48.45;;;36.22;;
33254;SDS011;19623;52.482;9.762;2022-11-18T06:49:10;49.28;;;38.60;;
33254;SDS011;19623;52.482;9.762;2022-11-18T06:51:36;50.00;;;37.20;;
33254;SDS011;19623;52.482;9.762;2022-11-18T06:54:03;50.40;;;39.03;;
33254;SDS011;19623;52.482;9.762;2022-11-18T06:56:29;44.13;;;31.88;;
33254;SDS011;19623;52.482;9.762;2022-11-18T06:58:55;48.13;;;32.38;;
33254;SDS011;19623;52.482;9.762;2022-11-18T07:01:24;53.88;;;33.70;;
33254;SDS011;19623;52.482;9.762;2022-11-18T07:03:52;38.70;;;26.73;;
33254;SDS011;19623;52.482;9.762;2022-11-18T07:06:20;43.65;;;28.70;;
33254;SDS011;19623;52.482;9.762;2022-11-18T07:08:47;67.90;;;53.53;;
33254;SDS011;19623;52.482;9.762;2022-11-18T07:11:15;38.92;;;26.73;;
33254;SDS011;19623;52.482;9.762;2022-11-18T07:13:43;43.08;;;28.23;;
33254;SDS011;19623;52.482;9.762;2022-11-18T07:16:13;35.83;;;23.00;;
33254;SDS011;19623;52.482;9.762;2022-11-18T07:18:41;37.25;;;21.50;;
33254;SDS011;19623;52.482;9.762;2022-11-18T07:21:09;38.33;;;26.08;;
33254;SDS011;19623;52.482;9.762;2022-11-18T07:23:37;37.22;;;21.90;;
33254;SDS011;19623;52.482;9.762;2022-11-18T07:26:02;45.35;;;22.30;;
33254;SDS011;19623;52.482;9.762;2022-11-18T07:28:29;43.10;;;23.85;;
33254;SDS011;19623;52.482;9.762;2022-11-18T07:33:30;31.08;;;17.83;;
33254;SDS011;19623;52.482;9.762;2022-11-18T07:36:07;42.55;;;24.35;;
33254;SDS011;19623;52.482;9.762;2022-11-18T07:38:35;37.70;;;21.52;;
33254;SDS011;19623;52.482;9.762;2022-11-18T07:41:03;36.00;;;22.33;;
33254;SDS011;19623;52.482;9.762;2022-11-18T07:43:36;34.83;;;22.75;;
33254;SDS011;19623;52.482;9.762;2022-11-18T07:46:12;34.05;;;21.58;;
33254;SDS011;19623;52.482;9.762;2022-11-18T07:48:39;40.65;;;23.02;;
33254;SDS011;19623;52.482;9.762;2022-11-18T07:51:05;42.33;;;23.88;;
33254;SDS011;19623;52.482;9.762;2022-11-18T07:53:32;43.08;;;24.23;;
33254;SDS011;19623;52.482;9.762;2022-11-18T07:55:58;39.35;;;24.52;;
33254;SDS011;19623;52.482;9.762;2022-11-18T07:58:24;39.60;;;22.60;;
33254;SDS011;19623;52.482;9.762;2022-11-18T08:00:50;38.25;;;22.42;;
33254;SDS011;19623;52.482;9.762;2022-11-18T08:03:16;43.15;;;25.35;;
33254;SDS011;19623;52.482;9.762;2022-11-18T08:05:42;48.22;;;31.30;;
33254;SDS011;19623;52.482;9.762;2022-11-18T08:08:07;42.80;;;26.45;;
33254;SDS011;19623;52.482;9.762;2022-11-18T08:10:34;42.00;;;27.92;;
33254;SDS011;19623;52.482;9.762;2022-11-18T08:13:00;55.80;;;32.83;;
33254;SDS011;19623;52.482;9.762;2022-11-18T08:15:26;49.67;;;31.85;;
33254;SDS011;19623;52.482;9.762;2022-11-18T08:17:52;43.47;;;27.48;;
33254;SDS011;19623;52.482;9.762;2022-11-18T08:20:17;44.78;;;28.02;;
33254;SDS011;19623;52.482;9.762;2022-11-18T08:22:43;48.03;;;28.40;;
33254;SDS011;19623;52.482;9.762;2022-11-18T08:25:09;49.53;;;29.50;;
33254;SDS011;19623;52.482;9.762;2022-11-18T08:27:35;50.72;;;30.98;;
33254;SDS011;19623;52.482;9.762;2022-11-18T08:30:00;48.55;;;30.58;;
33254;SDS011;19623;52.482;9.762;2022-11-18T08:32:26;53.30;;;32.60;;
33254;SDS011;19623;52.482;9.762;2022-11-18T08:34:52;46.78;;;29.52;;
33254;SDS011;19623;52.482;9.762;2022-11-18T08:37:18;50.67;;;33.38;;
33254;SDS011;19623;52.482;9.762;2022-11-18T08:39:43;50.47;;;30.85;;
33254;SDS011;19623;52.482;9.762;2022-11-18T08:42:09;53.45;;;36.90;;
33254;SDS011;19623;52.482;9.762;2022-11-18T08:44:35;52.40;;;33.45;;
33254;SDS011;19623;52.482;9.762;2022-11-18T08:47:01;42.20;;;27.63;;
33254;SDS011;19623;52.482;9.762;2022-11-18T08:49:27;50.78;;;31.92;;
33254;SDS011;19623;52.482;9.762;2022-11-18T08:51:53;50.33;;;26.80;;
33254;SDS011;19623;52.482;9.762;2022-11-18T08:54:20;48.55;;;29.52;;
33254;SDS011;19623;52.482;9.762;2022-11-18T08:56:46;47.88;;;27.80;;
33254;SDS011;19623;52.482;9.762;2022-11-18T08:59:11;51.38;;;30.02;;
33254;SDS011;19623;52.482;9.762;2022-11-18T09:01:37;43.95;;;25.23;;
33254;SDS011;19623;52.482;9.762;2022-11-18T09:04:05;41.47;;;25.08;;
33254;SDS011;19623;52.482;9.762;2022-11-18T09:06:31;51.38;;;31.40;;
33254;SDS011;19623;52.482;9.762;2022-11-18T09:08:58;48.20;;;26.70;;
33254;SDS011;19623;52.482;9.762;2022-11-18T09:11:25;42.08;;;27.15;;
33254;SDS011;19623;52.482;9.762;2022-11-18T09:13:52;40.67;;;25.60;;
33254;SDS011;19623;52.482;9.762;2022-11-18T09:16:20;45.92;;;26.05;;
33254;SDS011;19623;52.482;9.762;2022-11-18T09:18:47;34.22;;;22.88;;
33254;SDS011;19623;52.482;9.762;2022-11-18T09:21:16;37.70;;;23.13;;
33254;SDS011;19623;52.482;9.762;2022-11-18T09:23:42;38.60;;;25.50;;
33254;SDS011;19623;52.482;9.762;2022-11-18T09:26:10;39.80;;;27.13;;
33254;SDS011;19623;52.482;9.762;2022-11-18T09:28:38;37.05;;;21.45;;
33254;SDS011;19623;52.482;9.762;2022-11-18T09:31:08;37.40;;;25.60;;
33254;SDS011;19623;52.482;9.762;2022-11-18T09:33:36;40.10;;;24.30;;
33254;SDS011;19623;52.482;9.762;2022-11-18T09:39:01;34.53;;;22.08;;
33254;SDS011;19623;52.482;9.762;2022-11-18T09:44:22;31.50;;;18.58;;
33254;SDS011;19623;52.482;9.762;2022-11-18T09:47:18;40.20;;;28.63;;
33254;SDS011;19623;52.482;9.762;2022-11-18T09:49:53;34.78;;;22.33;;
33254;SDS011;19623;52.482;9.762;2022-11-18T09:52:23;33.00;;;19.83;;
33254;SDS011;19623;52.482;9.762;2022-11-18T09:54:55;31.00;;;21.05;;
33254;SDS011;19623;52.482;9.762;2022-11-18T09:57:24;29.98;;;18.55;;
33254;SDS011;19623;52.482;9.762;2022-11-18T09:59:56;33.35;;;21.55;;
33254;SDS011;19623;52.482;9.762;2022-11-18T10:05:26;24.73;;;17.83;;
33254;SDS011;19623;52.482;9.762;2022-11-18T10:10:57;32.47;;;21.10;;
33254;SDS011;19623;52.482;9.762;2022-11-18T10:25:12;26.50;;;16.60;;
33254;SDS011;19623;52.482;9.762;2022-11-18T10:27:40;33.03;;;17.67;;
33254;SDS011;19623;52.482;9.762;2022-11-18T10:30:15;27.08;;;14.60;;
33254;SDS011;19623;52.482;9.762;2022-11-18T10:32:59;27.10;;;15.98;;
33254;SDS011;19623;52.482;9.762;2022-11-18T10:37:59;29.70;;;16.67;;
33254;SDS011;19623;52.482;9.762;2022-11-18T10:40:28;30.95;;;17.17;;
33254;SDS011;19623;52.482;9.762;2022-11-18T10:42:55;31.67;;;17.73;;
33254;SDS011;19623;52.482;9.762;2022-11-18T10:50:42;30.95;;;17.67;;
33254;SDS011;19623;52.482;9.762;2022-11-18T10:55:56;35.15;;;17.17;;
33254;SDS011;19623;52.482;9.762;2022-11-18T10:58:30;27.33;;;16.48;;
33254;SDS011;19623;52.482;9.762;2022-11-18T11:08:51;34.10;;;17.20;;
33254;SDS011;19623;52.482;9.762;2022-11-18T11:11:32;30.75;;;17.85;;
33254;SDS011;19623;52.482;9.762;2022-11-18T11:14:13;33.65;;;17.08;;
33254;SDS011;19623;52.482;9.762;2022-11-18T11:16:47;31.58;;;16.30;;
33254;SDS011;19623;52.482;9.762;2022-11-18T11:19:22;29.75;;;16.55;;
33254;SDS011;19623;52.482;9.762;2022-11-18T11:21:53;32.45;;;18.10;;
33254;SDS011;19623;52.482;9.762;2022-11-18T11:24:20;27.50;;;16.80;;
33254;SDS011;19623;52.482;9.762;2022-11-18T11:26:57;28.27;;;16.20;;
33254;SDS011;19623;52.482;9.762;2022-11-18T11:30:20;27.90;;;15.85;;
33254;SDS011;19623;52.482;9.762;2022-11-18T11:37:52;28.50;;;15.52;;
33254;SDS011;19623;52.482;9.762;2022-11-18T11:43:49;28.80;;;16.85;;
33254;SDS011;19623;52.482;9.762;2022-11-18T11:49:52;28.13;;;15.05;;
33254;SDS011;19623;52.482;9.762;2022-11-18T12:01:00;24.88;;;14.38;;
33254;SDS011;19623;52.482;9.762;2022-11-18T12:03:47;21.58;;;12.73;;
33254;SDS011;19623;52.482;9.762;2022-11-18T12:06:18;25.75;;;13.43;;
33254;SDS011;19623;52.482;9.762;2022-11-18T12:09:08;23.10;;;13.48;;
33254;SDS011;19623;52.482;9.762;2022-11-18T12:11:37;20.55;;;13.85;;
33254;SDS011;19623;52.482;9.762;2022-11-18T12:14:23;24.23;;;14.48;;
33254;SDS011;19623;52.482;9.762;2022-11-18T12:19:40;23.65;;;15.15;;
33254;SDS011;19623;52.482;9.762;2022-11-18T12:22:06;23.35;;;15.30;;
33254;SDS011;19623;52.482;9.762;2022-11-18T12:24:36;20.63;;;13.70;;
33254;SDS011;19623;52.482;9.762;2022-11-18T12:27:10;21.63;;;13.45;;
33254;SDS011;19623;52.482;9.762;2022-11-18T12:29:42;26.58;;;15.40;;
33254;SDS011;19623;52.482;9.762;2022-11-18T12:34:58;23.38;;;13.45;;
33254;SDS011;19623;52.482;9.762;2022-11-18T12:39:57;23.20;;;14.40;;
33254;SDS011;19623;52.482;9.762;2022-11-18T12:48:25;22.30;;;14.40;;
33254;SDS011;19623;52.482;9.762;2022-11-18T12:53:30;21.98;;;14.80;;
33254;SDS011;19623;52.482;9.762;2022-11-18T12:56:10;20.40;;;13.65;;
33254;SDS011;19623;52.482;9.762;2022-11-18T12:58:49;24.63;;;15.07;;
33254;SDS011;19623;52.482;9.762;2022-11-18T13:01:21;29.70;;;20.08;;
33254;SDS011;19623;52.482;9.762;2022-11-18T13:06:32;29.40;;;19.33;;
33254;SDS011;19623;52.482;9.762;2022-11-18T13:09:00;23.17;;;14.73;;
33254;SDS011;19623;52.482;9.762;2022-11-18T13:11:30;25.83;;;16.95;;
33254;SDS011;19623;52.482;9.762;2022-11-18T13:17:29;23.05;;;14.80;;
33254;SDS011;19623;52.482;9.762;2022-11-18T13:20:18;23.25;;;15.45;;
33254;SDS011;19623;52.482;9.762;2022-11-18T13:23:01;19.35;;;13.95;;
33254;SDS011;19623;52.482;9.762;2022-11-18T13:34:14;25.48;;;15.77;;
33254;SDS011;19623;52.482;9.762;2022-11-18T13:36:50;25.80;;;15.30;;
33254;SDS011;19623;52.482;9.762;2022-11-18T13:39:24;24.92;;;15.93;;
33254;SDS011;19623;52.482;9.762;2022-11-18T13:44:26;25.13;;;15.77;;
33254;SDS011;19623;52.482;9.762;2022-11-18T13:55:19;23.45;;;14.80;;
33254;SDS011;19623;52.482;9.762;2022-11-18T13:57:48;36.95;;;22.35;;
33254;SDS011;19623;52.482;9.762;2022-11-18T14:00:25;26.05;;;16.17;;
33254;SDS011;19623;52.482;9.762;2022-11-18T14:02:54;27.95;;;16.17;;
33254;SDS011;19623;52.482;9.762;2022-11-18T14:05:39;30.77;;;16.80;;
33254;SDS011;19623;52.482;9.762;2022-11-18T14:08:06;30.95;;;17.60;;
33254;SDS011;19623;52.482;9.762;2022-11-18T14:10:49;28.83;;;16.92;;
33254;SDS011;19623;52.482;9.762;2022-11-18T14:15:46;32.55;;;18.55;;
33254;SDS011;19623;52.482;9.762;2022-11-18T14:21:10;29.38;;;17.90;;
33254;SDS011;19623;52.482;9.762;2022-11-18T14:23:36;30.92;;;19.17;;
33254;SDS011;19623;52.482;9.762;2022-11-18T14:26:08;29.45;;;17.77;;
33254;SDS011;19623;52.482;9.762;2022-11-18T14:28:35;29.00;;;16.38;;
33254;SDS011;19623;52.482;9.762;2022-11-18T14:31:08;51.97;;;24.35;;
33254;SDS011;19623;52.482;9.762;2022-11-18T14:36:45;30.60;;;17.73;;
33254;SDS011;19623;52.482;9.762;2022-11-18T14:39:24;35.28;;;19.00;;
33254;SDS011;19623;52.482;9.762;2022-11-18T14:44:18;33.60;;;20.52;;
33254;SDS011;19623;52.482;9.762;2022-11-18T14:47:28;36.50;;;18.70;;
33254;SDS011;19623;52.482;9.762;2022-11-18T14:49:42;32.08;;;19.40;;
33254;SDS011;19623;52.482;9.762;2022-11-18T14:52:08;34.35;;;19.85;;
33254;SDS011;19623;52.482;9.762;2022-11-18T14:54:34;31.98;;;18.17;;
33254;SDS011;19623;52.482;9.762;2022-11-18T14:57:01;36.63;;;20.80;;
33254;SDS011;19623;52.482;9.762;2022-11-18T14:59:28;35.80;;;21.02;;
33254;SDS011;19623;52.482;9.762;2022-11-18T15:01:54;37.08;;;22.15;;
33254;SDS011;19623;52.482;9.762;2022-11-18T15:04:21;36.97;;;22.50;;
33254;SDS011;19623;52.482;9.762;2022-11-18T15:06:46;32.95;;;19.15;;
33254;SDS011;19623;52.482;9.762;2022-11-18T15:09:12;35.92;;;20.38;;
33254;SDS011;19623;52.482;9.762;2022-11-18T15:11:38;33.95;;;19.90;;
33254;SDS011;19623;52.482;9.762;2022-11-18T15:14:04;32.40;;;20.10;;
33254;SDS011;19623;52.482;9.762;2022-11-18T15:16:30;41.53;;;21.30;;
33254;SDS011;19623;52.482;9.762;2022-11-18T15:18:58;38.85;;;21.58;;
33254;SDS011;19623;52.482;9.762;2022-11-18T15:21:26;35.55;;;20.60;;
33254;SDS011;19623;52.482;9.762;2022-11-18T15:23:52;43.72;;;24.98;;
33254;SDS011;19623;52.482;9.762;2022-11-18T15:26:22;36.85;;;19.88;;
33254;SDS011;19623;52.482;9.762;2022-11-18T15:28:50;38.88;;;21.08;;
33254;SDS011;19623;52.482;9.762;2022-11-18T15:31:18;36.22;;;19.48;;
33254;SDS011;19623;52.482;9.762;2022-11-18T15:33:44;30.38;;;18.83;;
33254;SDS011;19623;52.482;9.762;2022-11-18T15:36:12;34.20;;;21.33;;
33254;SDS011;19623;52.482;9.762;2022-11-18T15:38:39;36.28;;;23.85;;
33254;SDS011;19623;52.482;9.762;2022-11-18T15:41:05;34.28;;;23.55;;
33254;SDS011;19623;52.482;9.762;2022-11-18T15:43:31;31.67;;;20.05;;
33254;SDS011;19623;52.482;9.762;2022-11-18T15:45:57;26.27;;;17.92;;
33254;SDS011;19623;52.482;9.762;2022-11-18T15:48:23;32.25;;;19.25;;
33254;SDS011;19623;52.482;9.762;2022-11-18T15:50:49;31.48;;;20.33;;
33254;SDS011;19623;52.482;9.762;2022-11-18T15:53:15;30.17;;;19.80;;
33254;SDS011;19623;52.482;9.762;2022-11-18T15:55:41;27.48;;;17.45;;
33254;SDS011;19623;52.482;9.762;2022-11-18T15:58:07;29.98;;;20.38;;
33254;SDS011;19623;52.482;9.762;2022-11-18T16:00:33;29.15;;;19.13;;
33254;SDS011;19623;52.482;9.762;2022-11-18T16:02:58;32.30;;;22.10;;
33254;SDS011;19623;52.482;9.762;2022-11-18T16:05:24;29.40;;;15.57;;
33254;SDS011;19623;52.482;9.762;2022-11-18T16:07:50;24.35;;;15.43;;
33254;SDS011;19623;52.482;9.762;2022-11-18T16:10:15;30.58;;;18.08;;
33254;SDS011;19623;52.482;9.762;2022-11-18T16:13:00;30.35;;;17.98;;
33254;SDS011;19623;52.482;9.762;2022-11-18T16:15:26;28.08;;;18.83;;
33254;SDS011;19623;52.482;9.762;2022-11-18T16:18:12;30.80;;;20.20;;
33254;SDS011;19623;52.482;9.762;2022-11-18T16:20:38;37.95;;;25.92;;
33254;SDS011;19623;52.482;9.762;2022-11-18T16:23:04;42.30;;;27.85;;
33254;SDS011;19623;52.482;9.762;2022-11-18T16:25:29;42.53;;;30.50;;
33254;SDS011;19623;52.482;9.762;2022-11-18T16:27:55;54.60;;;37.67;;
33254;SDS011;19623;52.482;9.762;2022-11-18T16:30:21;43.55;;;30.48;;
33254;SDS011;19623;52.482;9.762;2022-11-18T16:33:05;39.17;;;27.58;;
33254;SDS011;19623;52.482;9.762;2022-11-18T16:35:31;44.85;;;31.70;;
33254;SDS011;19623;52.482;9.762;2022-11-18T16:37:57;41.40;;;29.73;;
33254;SDS011;19623;52.482;9.762;2022-11-18T16:40:23;40.40;;;27.40;;
33254;SDS011;19623;52.482;9.762;2022-11-18T16:42:49;38.70;;;26.35;;
33254;SDS011;19623;52.482;9.762;2022-11-18T16:45:15;43.72;;;29.08;;
33254;SDS011;19623;52.482;9.762;2022-11-18T16:47:42;45.88;;;32.47;;
33254;SDS011;19623;52.482;9.762;2022-11-18T16:50:08;33.83;;;23.77;;
33254;SDS011;19623;52.482;9.762;2022-11-18T16:52:34;36.58;;;25.92;;
33254;SDS011;19623;52.482;9.762;2022-11-18T16:54:59;34.03;;;24.48;;
33254;SDS011;19623;52.482;9.762;2022-11-18T16:57:25;35.50;;;25.25;;
33254;SDS011;19623;52.482;9.762;2022-11-18T16:59:51;34.95;;;23.50;;